Canefield Airport

Cloudy with light showers
28oC (82oF)

Cloudy with light showers


Winds: East south easterly @ 05kts / 09km/h

Humidity: 76%

Barometric Pressure: 1014 mb

Accumulated Rainfall for August: 127.0 mm

Updated: 18:00 local time (22:00 UTC)

Douglas-Charles Airport

Cloudy
25oC (77oF)

Cloudy


Winds: South easterly @ 04kts / 07km/h

Humidity: 91%

Barometric Pressure: 1017 mb

Accumulated Rainfall for August: 120.8 mm

Updated: 20:00 local time (00:00 UTC)

Satellite Imagery

Satellite Imagery
Click image for larger view. (Source: National Hurricane Center).

Aviation Routine Report (METAR)

Douglas-Charles: METAR TDPD 180000Z 13004KT 9999 BKN015 25/24 Q1017=
Canefield: METAR TDCF 172200Z 12005KT 9999-SHRA BKN016 SCT036 28/23 Q1014=